BVX550 YMML-YPAD
Flight info
| Callsign | BVX550 |
|---|---|
| Flight time | 0h 52m |
| Altitude | 34000 |
| Route | PEDNI1/27 PEDNI H345 AD |
| Aircraft | B77W/H-SDE1E2E3FGHIJ2J3J4J5M1RWXY/LB1D1 |
Departure
| Time | 2026-05-08 06:12 |
|---|---|
| Airport | Melbourne Airport (YMML) |
Arrival
| Time | 2026-05-08 07:04 |
|---|---|
| Airport | Adelaide International Airport (YPAD) |
| Time | Latitude | Longitude | Altitude | Speed | Heading |
|---|---|---|---|---|---|
| 2026-05-08 05:33 | -37.66915 | 144.84513 | 365 ft | 0 kts | 10° |
| 2026-05-08 05:53 | -37.66914 | 144.84513 | 365 ft | 0 kts | 10° |
| 2026-05-08 05:59 | -37.66918 | 144.84513 | 366 ft | 3 kts | 10° |
| 2026-05-08 05:59 | -37.66944 | 144.84506 | 366 ft | 4 kts | 11° |
| 2026-05-08 05:59 | -37.66971 | 144.84499 | 369 ft | 4 kts | 8° |
| 2026-05-08 06:00 | -37.66995 | 144.84501 | 367 ft | 4 kts | 328° |
| 2026-05-08 06:00 | -37.67012 | 144.84524 | 370 ft | 6 kts | 284° |
| 2026-05-08 06:00 | -37.67014 | 144.84535 | 370 ft | 2 kts | 271° |
| 2026-05-08 06:04 | -37.67015 | 144.84504 | 370 ft | 7 kts | 263° |
| 2026-05-08 06:04 | -37.67043 | 144.84417 | 372 ft | 10 kts | 248° |
| 2026-05-08 06:04 | -37.67056 | 144.84323 | 376 ft | 11 kts | 261° |
| 2026-05-08 06:04 | -37.67023 | 144.84233 | 377 ft | 14 kts | 341° |
| 2026-05-08 06:05 | -37.66904 | 144.84212 | 378 ft | 22 kts | 352° |
| 2026-05-08 06:05 | -37.66792 | 144.84193 | 380 ft | 14 kts | 352° |
| 2026-05-08 06:05 | -37.66711 | 144.84198 | 379 ft | 11 kts | 39° |
| 2026-05-08 06:05 | -37.66683 | 144.84312 | 373 ft | 17 kts | 82° |
| 2026-05-08 06:06 | -37.66667 | 144.84467 | 363 ft | 18 kts | 81° |
| 2026-05-08 06:06 | -37.66648 | 144.84630 | 359 ft | 21 kts | 83° |
| 2026-05-08 06:06 | -37.66606 | 144.84792 | 349 ft | 20 kts | 32° |
| 2026-05-08 06:06 | -37.66483 | 144.84779 | 336 ft | 11 kts | 348° |
| 2026-05-08 06:07 | -37.66402 | 144.84780 | 334 ft | 13 kts | 3° |
| 2026-05-08 06:07 | -37.66356 | 144.84783 | 333 ft | 0 kts | 1° |
| 2026-05-08 06:10 | -37.66353 | 144.84783 | 336 ft | 1 kts | 1° |
| 2026-05-08 06:10 | -37.66339 | 144.84784 | 332 ft | 4 kts | 1° |
| 2026-05-08 06:10 | -37.66295 | 144.84785 | 332 ft | 9 kts | 2° |
| 2026-05-08 06:10 | -37.66228 | 144.84757 | 335 ft | 12 kts | 292° |
| 2026-05-08 06:11 | -37.66224 | 144.84724 | 336 ft | 0 kts | 277° |
| 2026-05-08 06:11 | -37.66215 | 144.84603 | 358 ft | 56 kts | 275° |
| 2026-05-08 06:11 | -37.66154 | 144.83570 | 403 ft | 179 kts | 275° |
| 2026-05-08 06:12 | -37.65975 | 144.81744 | 1288 ft | 222 kts | 273° |
| 2026-05-08 06:12 | -37.65852 | 144.79841 | 3273 ft | 224 kts | 266° |
| 2026-05-08 06:12 | -37.65779 | 144.77843 | 4242 ft | 239 kts | 266° |
| 2026-05-08 06:12 | -37.65684 | 144.75687 | 4884 ft | 252 kts | 268° |
| 2026-05-08 06:13 | -37.65563 | 144.73452 | 4995 ft | 257 kts | 268° |
| 2026-05-08 06:13 | -37.65433 | 144.71198 | 5005 ft | 257 kts | 268° |
| 2026-05-08 06:13 | -37.65301 | 144.68957 | 5012 ft | 255 kts | 268° |
| 2026-05-08 06:13 | -37.65171 | 144.66739 | 5110 ft | 254 kts | 268° |
| 2026-05-08 06:14 | -37.64862 | 144.64532 | 5927 ft | 261 kts | 281° |
| 2026-05-08 06:14 | -37.64224 | 144.62334 | 7000 ft | 272 kts | 285° |
| 2026-05-08 06:14 | -37.63490 | 144.60102 | 8104 ft | 277 kts | 287° |
| 2026-05-08 06:14 | -37.62817 | 144.58095 | 9117 ft | 281 kts | 287° |
| 2026-05-08 06:15 | -37.62050 | 144.55803 | 10244 ft | 286 kts | 287° |
| 2026-05-08 06:15 | -37.61260 | 144.53413 | 10938 ft | 307 kts | 287° |
| 2026-05-08 06:15 | -37.60405 | 144.50785 | 11237 ft | 341 kts | 287° |
| 2026-05-08 06:15 | -37.59477 | 144.47930 | 11932 ft | 358 kts | 287° |
| 2026-05-08 06:16 | -37.58520 | 144.45002 | 12965 ft | 366 kts | 287° |
| 2026-05-08 06:16 | -37.57542 | 144.42006 | 14123 ft | 371 kts | 287° |
| 2026-05-08 06:16 | -37.56555 | 144.38979 | 15154 ft | 377 kts | 287° |
| 2026-05-08 06:16 | -37.55551 | 144.35895 | 16139 ft | 383 kts | 288° |
| 2026-05-08 06:17 | -37.53510 | 144.29610 | 18123 ft | 396 kts | 288° |
| 2026-05-08 06:17 | -37.52462 | 144.26378 | 19040 ft | 402 kts | 288° |
| 2026-05-08 06:17 | -37.51393 | 144.23092 | 19892 ft | 408 kts | 288° |
| 2026-05-08 06:18 | -37.50309 | 144.19761 | 20780 ft | 414 kts | 288° |
| 2026-05-08 06:18 | -37.49209 | 144.16384 | 21662 ft | 419 kts | 288° |
| 2026-05-08 06:18 | -37.48092 | 144.12956 | 22519 ft | 425 kts | 288° |
| 2026-05-08 06:18 | -37.46963 | 144.09497 | 23351 ft | 431 kts | 288° |
| 2026-05-08 06:19 | -37.45814 | 144.05981 | 24125 ft | 437 kts | 288° |
| 2026-05-08 06:19 | -37.44651 | 144.02426 | 24810 ft | 442 kts | 288° |
| 2026-05-08 06:19 | -37.43469 | 143.98821 | 25502 ft | 447 kts | 288° |
| 2026-05-08 06:19 | -37.42276 | 143.95186 | 26197 ft | 452 kts | 288° |
| 2026-05-08 06:20 | -37.41067 | 143.91504 | 26842 ft | 457 kts | 288° |
| 2026-05-08 06:20 | -37.39863 | 143.87843 | 27462 ft | 462 kts | 288° |
| 2026-05-08 06:20 | -37.38612 | 143.84043 | 28106 ft | 467 kts | 288° |
| 2026-05-08 06:20 | -37.37380 | 143.80305 | 28715 ft | 471 kts | 288° |
| 2026-05-08 06:21 | -37.36115 | 143.76473 | 29300 ft | 476 kts | 288° |
| 2026-05-08 06:21 | -37.34840 | 143.72615 | 29887 ft | 480 kts | 288° |
| 2026-05-08 06:21 | -37.33552 | 143.68727 | 30448 ft | 484 kts | 288° |
| 2026-05-08 06:21 | -37.32252 | 143.64804 | 30904 ft | 488 kts | 288° |
| 2026-05-08 06:22 | -37.30939 | 143.60848 | 31326 ft | 492 kts | 289° |
| 2026-05-08 06:22 | -37.29611 | 143.56853 | 31723 ft | 496 kts | 289° |
| 2026-05-08 06:22 | -37.28277 | 143.52847 | 32184 ft | 498 kts | 289° |
| 2026-05-08 06:22 | -37.26942 | 143.48846 | 32765 ft | 496 kts | 289° |
| 2026-05-08 06:23 | -37.25610 | 143.44858 | 33363 ft | 495 kts | 289° |
| 2026-05-08 06:23 | -37.24280 | 143.40876 | 33919 ft | 494 kts | 289° |
| 2026-05-08 06:23 | -37.22949 | 143.36895 | 34322 ft | 497 kts | 289° |
| 2026-05-08 06:23 | -37.21602 | 143.32866 | 34291 ft | 501 kts | 289° |
| 2026-05-08 06:24 | -37.18945 | 143.24910 | 34279 ft | 493 kts | 288° |
| 2026-05-08 06:24 | -37.16484 | 143.16918 | 34299 ft | 491 kts | 287° |
| 2026-05-08 06:25 | -37.14085 | 143.08903 | 34299 ft | 492 kts | 287° |
| 2026-05-08 06:25 | -37.11654 | 143.00874 | 34302 ft | 493 kts | 287° |
| 2026-05-08 06:26 | -37.09195 | 142.92851 | 34302 ft | 493 kts | 287° |
| 2026-05-08 06:26 | -37.06721 | 142.84829 | 34305 ft | 494 kts | 287° |
| 2026-05-08 06:27 | -37.04238 | 142.76798 | 34308 ft | 494 kts | 287° |
| 2026-05-08 06:27 | -37.01756 | 142.68790 | 34308 ft | 494 kts | 288° |
| 2026-05-08 06:28 | -36.99268 | 142.60783 | 34309 ft | 494 kts | 288° |
| 2026-05-08 06:28 | -36.96776 | 142.52785 | 34314 ft | 493 kts | 288° |
| 2026-05-08 06:29 | -36.94285 | 142.44812 | 34311 ft | 492 kts | 288° |
| 2026-05-08 06:29 | -36.91786 | 142.36838 | 34325 ft | 492 kts | 288° |
| 2026-05-08 06:30 | -36.89301 | 142.28931 | 34328 ft | 492 kts | 288° |
| 2026-05-08 06:30 | -36.86796 | 142.20979 | 34327 ft | 492 kts | 288° |
| 2026-05-08 06:31 | -36.84283 | 142.13026 | 34326 ft | 492 kts | 288° |
| 2026-05-08 06:31 | -36.81766 | 142.05081 | 34331 ft | 492 kts | 288° |
| 2026-05-08 06:32 | -36.79245 | 141.97144 | 34348 ft | 492 kts | 289° |
| 2026-05-08 06:32 | -36.76710 | 141.89188 | 34349 ft | 492 kts | 289° |
| 2026-05-08 06:33 | -36.74176 | 141.81254 | 34336 ft | 492 kts | 289° |
| 2026-05-08 06:33 | -36.72067 | 141.74671 | 34352 ft | 492 kts | 289° |
| 2026-05-08 06:34 | -36.69523 | 141.66746 | 34350 ft | 492 kts | 289° |
| 2026-05-08 06:34 | -36.66975 | 141.58831 | 34352 ft | 492 kts | 289° |
| 2026-05-08 06:35 | -36.64420 | 141.50916 | 34358 ft | 492 kts | 289° |
| 2026-05-08 06:35 | -36.61861 | 141.43010 | 34358 ft | 492 kts | 289° |
| 2026-05-08 06:36 | -36.59300 | 141.35118 | 34360 ft | 492 kts | 289° |
| 2026-05-08 06:36 | -36.56748 | 141.27277 | 34358 ft | 492 kts | 289° |
| 2026-05-08 06:37 | -36.54177 | 141.19399 | 34370 ft | 492 kts | 289° |
| 2026-05-08 06:37 | -36.51597 | 141.11510 | 34370 ft | 492 kts | 289° |
| 2026-05-08 06:38 | -36.49010 | 141.03625 | 34369 ft | 492 kts | 289° |
| 2026-05-08 06:38 | -36.46422 | 140.95756 | 34372 ft | 492 kts | 289° |
| 2026-05-08 06:39 | -36.43825 | 140.87878 | 34372 ft | 492 kts | 289° |
| 2026-05-08 06:39 | -36.41227 | 140.80017 | 34379 ft | 492 kts | 289° |
| 2026-05-08 06:40 | -36.38116 | 140.72447 | 34385 ft | 495 kts | 300° |
| 2026-05-08 06:40 | -36.33969 | 140.65595 | 34381 ft | 497 kts | 307° |
| 2026-05-08 06:41 | -36.29675 | 140.58951 | 34382 ft | 497 kts | 307° |
| 2026-05-08 06:41 | -36.25390 | 140.52248 | 34380 ft | 496 kts | 306° |
| 2026-05-08 06:42 | -36.21118 | 140.45523 | 34386 ft | 497 kts | 306° |
| 2026-05-08 06:42 | -36.16849 | 140.38809 | 34379 ft | 496 kts | 306° |
| 2026-05-08 06:43 | -36.12569 | 140.32097 | 34391 ft | 496 kts | 306° |
| 2026-05-08 06:43 | -36.08292 | 140.25402 | 34388 ft | 493 kts | 306° |
| 2026-05-08 06:44 | -36.06195 | 140.22134 | 34377 ft | 477 kts | 306° |
| 2026-05-08 06:44 | -36.04163 | 140.18975 | 34366 ft | 462 kts | 306° |
| 2026-05-08 06:44 | -36.02195 | 140.15919 | 34374 ft | 448 kts | 306° |
| 2026-05-08 06:44 | -36.00259 | 140.12911 | 34388 ft | 446 kts | 306° |
| 2026-05-08 06:45 | -35.96420 | 140.06945 | 34401 ft | 446 kts | 306° |
| 2026-05-08 06:45 | -35.92549 | 140.00939 | 34401 ft | 447 kts | 306° |
| 2026-05-08 06:46 | -35.88668 | 139.94932 | 34400 ft | 447 kts | 306° |
| 2026-05-08 06:46 | -35.84789 | 139.88938 | 34403 ft | 448 kts | 306° |
| 2026-05-08 06:47 | -35.80900 | 139.82940 | 34404 ft | 448 kts | 307° |
| 2026-05-08 06:47 | -35.77005 | 139.76944 | 34407 ft | 448 kts | 307° |
| 2026-05-08 06:48 | -35.73108 | 139.70953 | 34409 ft | 449 kts | 307° |
| 2026-05-08 06:48 | -35.69196 | 139.64952 | 34421 ft | 449 kts | 307° |
| 2026-05-08 06:49 | -35.65311 | 139.59001 | 34414 ft | 450 kts | 307° |
| 2026-05-08 06:49 | -35.61393 | 139.53009 | 34412 ft | 450 kts | 307° |
| 2026-05-08 06:50 | -35.57467 | 139.47016 | 34411 ft | 450 kts | 307° |
| 2026-05-08 06:50 | -35.53535 | 139.41025 | 34416 ft | 450 kts | 307° |
| 2026-05-08 06:51 | -35.49612 | 139.35046 | 34257 ft | 447 kts | 307° |
| 2026-05-08 06:51 | -35.47673 | 139.32086 | 33803 ft | 443 kts | 307° |
| 2026-05-08 06:51 | -35.45752 | 139.29154 | 33381 ft | 439 kts | 307° |
| 2026-05-08 06:52 | -35.43844 | 139.26247 | 32968 ft | 435 kts | 307° |
| 2026-05-08 06:52 | -35.41736 | 139.23622 | 32460 ft | 433 kts | 323° |
| 2026-05-08 06:52 | -35.39075 | 139.21921 | 31965 ft | 430 kts | 340° |
| 2026-05-08 06:52 | -35.36293 | 139.20716 | 31519 ft | 428 kts | 340° |
| 2026-05-08 06:53 | -35.33465 | 139.19470 | 31092 ft | 426 kts | 339° |
| 2026-05-08 06:53 | -35.30740 | 139.18241 | 30520 ft | 420 kts | 338° |
| 2026-05-08 06:53 | -35.28007 | 139.16988 | 29392 ft | 419 kts | 338° |
| 2026-05-08 06:53 | -35.25274 | 139.15723 | 28131 ft | 420 kts | 338° |
| 2026-05-08 06:54 | -35.22550 | 139.14458 | 26879 ft | 417 kts | 338° |
| 2026-05-08 06:54 | -35.19839 | 139.13202 | 25474 ft | 418 kts | 338° |
| 2026-05-08 06:54 | -35.17102 | 139.11936 | 24144 ft | 418 kts | 338° |
| 2026-05-08 06:54 | -35.14387 | 139.10682 | 22667 ft | 416 kts | 338° |
| 2026-05-08 06:55 | -35.11691 | 139.09437 | 21227 ft | 413 kts | 338° |
| 2026-05-08 06:55 | -35.09014 | 139.08203 | 19882 ft | 409 kts | 338° |
| 2026-05-08 06:55 | -35.06454 | 139.06786 | 18595 ft | 401 kts | 325° |
| 2026-05-08 06:55 | -35.04365 | 139.04597 | 17232 ft | 390 kts | 312° |
| 2026-05-08 06:56 | -35.02456 | 139.02298 | 16079 ft | 381 kts | 313° |
| 2026-05-08 06:56 | -35.00558 | 139.00096 | 14970 ft | 373 kts | 314° |
| 2026-05-08 06:56 | -34.98671 | 138.97963 | 13827 ft | 366 kts | 314° |
| 2026-05-08 06:56 | -34.96806 | 138.95876 | 12612 ft | 360 kts | 314° |
| 2026-05-08 06:57 | -34.94996 | 138.93855 | 11726 ft | 348 kts | 314° |
| 2026-05-08 06:57 | -34.93251 | 138.91909 | 11147 ft | 328 kts | 314° |
| 2026-05-08 06:57 | -34.91633 | 138.90102 | 10587 ft | 312 kts | 313° |
| 2026-05-08 06:57 | -34.90061 | 138.88344 | 9894 ft | 302 kts | 313° |
| 2026-05-08 06:58 | -34.88534 | 138.86637 | 9136 ft | 295 kts | 314° |
| 2026-05-08 06:58 | -34.87028 | 138.84954 | 8324 ft | 292 kts | 314° |
| 2026-05-08 06:58 | -34.85540 | 138.83292 | 7528 ft | 289 kts | 314° |
| 2026-05-08 06:58 | -34.84061 | 138.81642 | 6733 ft | 287 kts | 313° |
| 2026-05-08 06:59 | -34.82599 | 138.80013 | 5987 ft | 282 kts | 314° |
| 2026-05-08 06:59 | -34.81250 | 138.78347 | 5271 ft | 270 kts | 300° |
| 2026-05-08 06:59 | -34.80615 | 138.76291 | 4469 ft | 256 kts | 270° |
| 2026-05-08 06:59 | -34.80827 | 138.74184 | 3672 ft | 248 kts | 249° |
| 2026-05-08 07:00 | -34.81550 | 138.72309 | 3341 ft | 247 kts | 233° |
| 2026-05-08 07:00 | -34.82620 | 138.70622 | 3177 ft | 254 kts | 228° |
| 2026-05-08 07:00 | -34.83770 | 138.69053 | 3025 ft | 249 kts | 225° |
| 2026-05-08 07:00 | -34.84913 | 138.67512 | 2825 ft | 243 kts | 226° |
| 2026-05-08 07:01 | -34.86010 | 138.65942 | 2501 ft | 244 kts | 227° |
| 2026-05-08 07:01 | -34.87090 | 138.64380 | 2159 ft | 230 kts | 228° |
| 2026-05-08 07:01 | -34.88081 | 138.62946 | 1858 ft | 217 kts | 227° |
| 2026-05-08 07:01 | -34.89018 | 138.61594 | 1602 ft | 197 kts | 227° |
| 2026-05-08 07:02 | -34.89844 | 138.60401 | 1373 ft | 171 kts | 227° |
| 2026-05-08 07:02 | -34.90582 | 138.59335 | 1115 ft | 157 kts | 227° |
| 2026-05-08 07:02 | -34.91263 | 138.58352 | 920 ft | 150 kts | 226° |
| 2026-05-08 07:02 | -34.91955 | 138.57382 | 808 ft | 150 kts | 226° |
| 2026-05-08 07:03 | -34.92636 | 138.56409 | 517 ft | 156 kts | 231° |
| 2026-05-08 07:03 | -34.93284 | 138.55466 | 301 ft | 135 kts | 231° |
| 2026-05-08 07:03 | -34.93879 | 138.54585 | 103 ft | 134 kts | 230° |
| 2026-05-08 07:03 | -34.94432 | 138.53799 | 28 ft | 107 kts | 227° |
| 2026-05-08 07:04 | -34.94794 | 138.53281 | 28 ft | 55 kts | 231° |
| 2026-05-08 07:04 | -34.94939 | 138.53056 | 27 ft | 22 kts | 238° |
| 2026-05-08 07:04 | -34.94904 | 138.52981 | 30 ft | 11 kts | 5° |
| 2026-05-08 07:04 | -34.94825 | 138.53013 | 26 ft | 13 kts | 20° |
| 2026-05-08 07:05 | -34.94732 | 138.53055 | 26 ft | 15 kts | 20° |
| 2026-05-08 07:05 | -34.94624 | 138.53102 | 27 ft | 17 kts | 20° |
| 2026-05-08 07:05 | -34.94543 | 138.53137 | 27 ft | 11 kts | 20° |
| 2026-05-08 07:05 | -34.94505 | 138.53208 | 28 ft | 12 kts | 102° |
| 2026-05-08 07:06 | -34.94510 | 138.53321 | 27 ft | 14 kts | 74° |
| 2026-05-08 07:06 | -34.94447 | 138.53427 | 27 ft | 17 kts | 49° |
| 2026-05-08 07:06 | -34.94370 | 138.53536 | 27 ft | 17 kts | 50° |
| 2026-05-08 07:06 | -34.94294 | 138.53648 | 28 ft | 17 kts | 51° |
| 2026-05-08 07:07 | -34.94218 | 138.53760 | 29 ft | 17 kts | 50° |
| 2026-05-08 07:07 | -34.94147 | 138.53863 | 29 ft | 16 kts | 50° |
| 2026-05-08 07:07 | -34.94077 | 138.53966 | 30 ft | 16 kts | 50° |
| 2026-05-08 07:07 | -34.94008 | 138.54069 | 31 ft | 16 kts | 51° |
| 2026-05-08 07:08 | -34.93937 | 138.54151 | 32 ft | 12 kts | 15° |
| 2026-05-08 07:08 | -34.93891 | 138.54083 | 31 ft | 12 kts | 254° |
| 2026-05-08 07:08 | -34.93946 | 138.54008 | 30 ft | 11 kts | 234° |
| 2026-05-08 07:08 | -34.93921 | 138.53932 | 32 ft | 11 kts | 321° |
| 2026-05-08 07:09 | -34.93893 | 138.53903 | 32 ft | 0 kts | 320° |